createdAt,value
2023-04-26T00:00:36.604Z,2.17
2023-04-26T00:03:05.317Z,2.27
2023-04-26T00:05:35.283Z,2.50
2023-04-26T00:08:05.394Z,1.97
2023-04-26T00:10:33.790Z,2.00
2023-04-26T00:13:02.201Z,1.60
2023-04-26T00:15:30.708Z,1.87
2023-04-26T00:17:59.079Z,1.83
2023-04-26T00:20:27.607Z,1.73
2023-04-26T00:22:55.972Z,1.80
2023-04-26T00:25:25.818Z,1.57
2023-04-26T00:27:54.140Z,1.67
2023-04-26T00:30:22.920Z,2.93
2023-04-26T00:32:51.382Z,1.43
2023-04-26T00:35:19.868Z,2.07
2023-04-26T00:37:48.435Z,1.57
2023-04-26T00:40:17.484Z,1.47
2023-04-26T00:42:47.373Z,1.87
2023-04-26T00:45:15.899Z,2.00
2023-04-26T00:47:44.608Z,1.80
2023-04-26T00:50:13.063Z,1.53
2023-04-26T00:52:41.610Z,1.70
2023-04-26T00:55:10.965Z,2.33
2023-04-26T00:57:40.544Z,1.90
2023-04-26T01:00:12.007Z,2.07
2023-04-26T01:02:40.516Z,2.00
2023-04-26T01:05:09.783Z,1.83
2023-04-26T01:07:38.681Z,2.20
2023-04-26T01:10:09.589Z,1.67
2023-04-26T01:12:39.738Z,2.30
2023-04-26T01:15:10.927Z,1.73
2023-04-26T01:17:39.781Z,3.00
2023-04-26T01:20:10.602Z,2.20
2023-04-26T01:22:40.438Z,1.50
2023-04-26T01:25:12.561Z,1.73
2023-04-26T01:27:41.882Z,3.37
2023-04-26T01:30:11.444Z,1.53
2023-04-26T01:32:39.804Z,1.67
2023-04-26T01:35:08.576Z,1.27
2023-04-26T01:37:36.993Z,2.53
2023-04-26T01:40:08.317Z,2.40
2023-04-26T01:42:36.694Z,1.90
2023-04-26T01:45:05.487Z,2.07
2023-04-26T01:47:34.131Z,1.50
2023-04-26T01:50:02.471Z,2.17
2023-04-26T01:52:30.862Z,2.07
2023-04-26T01:54:59.191Z,2.20
2023-04-26T01:57:29.003Z,1.13
2023-04-26T01:59:57.310Z,2.13
2023-04-26T02:02:25.798Z,1.70
2023-04-26T02:04:54.158Z,1.57
2023-04-26T02:07:22.646Z,1.93
2023-04-26T02:09:51.677Z,1.57
2023-04-26T02:12:19.979Z,1.83
2023-04-26T02:14:49.720Z,1.60
2023-04-26T02:17:18.033Z,1.70
2023-04-26T02:19:46.443Z,2.23
2023-04-26T02:22:15.027Z,2.20
2023-04-26T02:24:43.453Z,2.10
2023-04-26T02:27:11.826Z,1.67
2023-04-26T02:29:44.285Z,2.40
2023-04-26T02:32:14.792Z,2.73
2023-04-26T02:34:44.059Z,1.40
2023-04-26T02:37:12.474Z,1.10
2023-04-26T02:39:40.894Z,2.13
2023-04-26T02:42:10.827Z,2.33
2023-04-26T02:44:40.198Z,2.17
2023-04-26T02:47:08.816Z,1.13
2023-04-26T02:49:38.785Z,2.60
2023-04-26T02:52:07.299Z,1.80
2023-04-26T02:54:35.700Z,2.27
2023-04-26T02:57:04.078Z,3.13
2023-04-26T02:59:32.566Z,1.50
2023-04-26T03:02:00.988Z,1.20
2023-04-26T03:04:30.311Z,1.23
2023-04-26T03:07:00.172Z,1.93
2023-04-26T03:09:28.558Z,1.37
2023-04-26T03:11:56.972Z,2.23
2023-04-26T03:14:25.366Z,1.90
2023-04-26T03:19:22.059Z,2.00
2023-04-26T03:21:50.352Z,1.90
2023-04-26T03:24:20.139Z,2.07
2023-04-26T03:26:48.525Z,2.07
2023-04-26T03:29:17.563Z,2.50
2023-04-26T03:31:45.908Z,2.70
2023-04-26T03:34:14.332Z,2.33
2023-04-26T03:36:42.678Z,2.33
2023-04-26T03:39:11.651Z,2.63
2023-04-26T03:41:41.436Z,1.77
2023-04-26T03:44:09.874Z,1.83
2023-04-26T03:46:38.311Z,2.60
2023-04-26T03:49:06.722Z,2.67
2023-04-26T03:51:35.103Z,1.67
2023-04-26T03:54:03.866Z,2.07
2023-04-26T03:56:32.293Z,2.20
2023-04-26T03:59:02.183Z,1.90
2023-04-26T04:01:30.490Z,2.93
2023-04-26T04:03:59.387Z,3.27
2023-04-26T04:06:28.057Z,2.53
2023-04-26T04:08:56.610Z,2.90
2023-04-26T04:11:25.102Z,2.23
2023-04-26T04:13:53.485Z,2.40
2023-04-26T04:16:23.512Z,2.07
2023-04-26T04:18:52.322Z,1.97
2023-04-26T04:21:21.076Z,2.97
2023-04-26T04:23:50.314Z,3.83
2023-04-26T04:26:19.267Z,2.70
2023-04-26T04:28:48.803Z,2.27
2023-04-26T04:31:17.832Z,3.53
2023-04-26T04:33:47.608Z,2.27
2023-04-26T04:36:17.885Z,1.27
2023-04-26T04:38:46.327Z,2.10
2023-04-26T04:41:14.605Z,2.53
2023-04-26T04:43:43.192Z,2.70
2023-04-26T04:46:12.794Z,1.67
2023-04-26T04:48:41.613Z,1.53
2023-04-26T04:51:12.133Z,2.60
2023-04-26T04:53:40.520Z,1.67
2023-04-26T04:56:09.185Z,2.17
2023-04-26T04:58:37.786Z,2.97
2023-04-26T05:01:06.380Z,2.40
2023-04-26T05:03:34.964Z,2.50
2023-04-26T05:06:03.949Z,1.70
2023-04-26T05:08:33.813Z,1.87
2023-04-26T05:11:03.061Z,1.77
2023-04-26T05:13:31.435Z,1.73
2023-04-26T05:15:59.898Z,2.17
2023-04-26T05:18:28.256Z,1.80
2023-04-26T05:20:56.596Z,2.33
2023-04-26T05:23:25.054Z,1.93
2023-04-26T05:25:55.047Z,2.60
2023-04-26T05:28:23.402Z,2.57
2023-04-26T05:30:51.812Z,2.43
2023-04-26T05:33:20.212Z,1.60
2023-04-26T05:35:48.831Z,2.77
2023-04-26T05:38:17.339Z,1.70
2023-04-26T05:40:45.716Z,2.53
2023-04-26T05:43:15.459Z,1.83
2023-04-26T05:45:52.507Z,1.57
2023-04-26T05:48:22.587Z,2.10
2023-04-26T05:50:51.154Z,1.60
2023-04-26T05:53:20.430Z,1.60
2023-04-26T05:55:48.827Z,1.97
2023-04-26T05:58:18.704Z,1.97
2023-04-26T06:00:47.901Z,1.87
2023-04-26T06:03:16.879Z,1.87
2023-04-26T06:05:45.661Z,1.67
2023-04-26T06:08:14.117Z,1.50
2023-04-26T06:10:42.659Z,2.23
2023-04-26T06:13:11.935Z,1.73
2023-04-26T06:15:41.846Z,1.53
2023-04-26T06:18:10.331Z,1.47
2023-04-26T06:20:39.020Z,1.20
2023-04-26T06:23:07.691Z,1.47
2023-04-26T06:25:44.915Z,1.63
2023-04-26T06:28:13.646Z,1.23
2023-04-26T06:30:44.069Z,1.67
2023-04-26T06:33:12.542Z,1.33
2023-04-26T06:35:56.091Z,1.63
2023-04-26T06:38:24.558Z,1.50
2023-04-26T06:40:52.892Z,2.10
2023-04-26T06:43:21.393Z,1.47
2023-04-26T06:45:51.621Z,1.37
2023-04-26T06:48:29.825Z,1.53
2023-04-26T06:50:58.279Z,0.97
2023-04-26T06:53:26.705Z,1.57
2023-04-26T06:56:05.146Z,1.10
2023-04-26T06:58:33.673Z,0.93
2023-04-26T07:01:03.837Z,1.00
2023-04-26T07:03:32.663Z,1.57
2023-04-26T07:06:11.873Z,1.43
2023-04-26T07:08:40.194Z,1.13
2023-04-26T07:11:11.495Z,1.50
2023-04-26T07:13:39.946Z,1.37
2023-04-26T07:18:53.009Z,1.00
2023-04-26T07:21:21.406Z,1.00
2023-04-26T07:23:49.882Z,1.20
2023-04-26T07:26:18.290Z,0.90
2023-04-26T07:28:46.788Z,1.57
2023-04-26T07:31:16.763Z,1.33
2023-04-26T07:33:45.217Z,1.13
2023-04-26T07:36:13.868Z,1.47
2023-04-26T07:38:42.514Z,1.27
2023-04-26T07:41:13.181Z,1.10
2023-04-26T07:43:41.558Z,0.80
2023-04-26T07:46:09.995Z,1.03
2023-04-26T07:48:39.852Z,1.17
2023-04-26T07:51:12.675Z,0.70
2023-04-26T07:53:41.570Z,0.60
2023-04-26T07:56:10.707Z,0.80
2023-04-26T07:58:40.209Z,1.27
2023-04-26T08:01:09.961Z,1.13
2023-04-26T08:03:40.003Z,1.00
2023-04-26T08:06:09.179Z,1.03
2023-04-26T08:08:42.980Z,1.37
2023-04-26T08:11:11.832Z,1.00
2023-04-26T08:13:40.463Z,0.80
2023-04-26T08:16:09.065Z,1.20
2023-04-26T08:18:37.499Z,1.07
2023-04-26T08:21:07.909Z,1.00
2023-04-26T08:23:37.503Z,0.53
2023-04-26T08:26:06.593Z,0.60
2023-04-26T08:28:35.906Z,0.70
2023-04-26T08:31:04.711Z,0.50
2023-04-26T08:33:33.298Z,0.60
2023-04-26T08:36:02.418Z,0.40
2023-04-26T08:38:47.036Z,0.80
2023-04-26T08:41:16.949Z,0.43
2023-04-26T08:43:45.370Z,0.57
2023-04-26T08:46:20.259Z,0.50
2023-04-26T08:48:52.932Z,0.70
2023-04-26T08:51:22.718Z,0.70
2023-04-26T08:53:54.870Z,0.33
2023-04-26T08:56:27.986Z,0.87
2023-04-26T08:58:57.034Z,0.50
2023-04-26T09:01:27.174Z,0.57
2023-04-26T09:03:57.512Z,0.40
2023-04-26T09:06:28.456Z,0.90
2023-04-26T09:12:11.973Z,0.60
2023-04-26T09:14:40.641Z,0.57
2023-04-26T09:17:26.410Z,0.70
2023-04-26T09:19:55.303Z,0.40
2023-04-26T09:22:34.688Z,0.63
2023-04-26T09:25:07.337Z,0.77
2023-04-26T09:27:38.091Z,0.87
2023-04-26T09:30:09.705Z,0.60
2023-04-26T09:32:49.112Z,0.93
2023-04-26T09:35:24.487Z,0.40
2023-04-26T09:38:02.334Z,0.30
2023-04-26T09:40:37.692Z,0.70
2023-04-26T09:43:10.217Z,0.40
2023-04-26T09:45:46.664Z,0.40
2023-04-26T09:48:16.997Z,0.50
2023-04-26T09:50:47.239Z,0.80
2023-04-26T09:53:37.522Z,0.50
2023-04-26T09:56:11.796Z,0.40
2023-04-26T09:58:58.883Z,0.60
2023-04-26T10:01:29.731Z,0.67
2023-04-26T10:04:23.676Z,0.30
2023-04-26T10:06:52.233Z,0.63
2023-04-26T10:09:20.670Z,0.65
2023-04-26T10:11:50.651Z,0.50
2023-04-26T10:14:19.320Z,0.68
2023-04-26T10:16:48.316Z,0.40
2023-04-26T10:19:19.178Z,1.00
2023-04-26T10:21:54.048Z,0.40
2023-04-26T10:24:28.578Z,0.60
2023-04-26T10:28:00.991Z,0.50
2023-04-26T10:30:30.897Z,0.55
2023-04-26T10:33:21.662Z,0.40
2023-04-26T10:36:10.529Z,0.60
2023-04-26T10:38:43.440Z,0.63
2023-04-26T10:41:38.627Z,0.55
2023-04-26T10:44:39.161Z,0.60
2023-04-26T10:47:21.721Z,0.40
2023-04-26T10:49:51.829Z,1.10
2023-04-26T10:52:23.267Z,0.98
2023-04-26T10:54:57.322Z,0.50
2023-04-26T10:57:41.592Z,1.23
2023-04-26T11:00:33.728Z,0.50
2023-04-26T11:03:09.021Z,0.50
2023-04-26T11:05:54.218Z,1.08
2023-04-26T11:08:26.287Z,0.55
2023-04-26T11:11:00.696Z,0.50
2023-04-26T11:13:29.065Z,0.60
2023-04-26T11:16:04.331Z,0.60
2023-04-26T11:18:35.102Z,0.60
2023-04-26T11:21:03.729Z,0.63
2023-04-26T11:23:32.758Z,0.52
2023-04-26T11:26:02.983Z,0.57
2023-04-26T11:28:39.719Z,0.50
2023-04-26T11:31:09.628Z,0.57
2023-04-26T11:33:39.593Z,0.70
2023-04-26T11:36:08.489Z,0.52
2023-04-26T11:38:37.067Z,0.50
2023-04-26T11:41:08.375Z,0.50
2023-04-26T11:43:37.860Z,0.52
2023-04-26T11:46:07.494Z,0.90
2023-04-26T11:48:39.091Z,0.57
2023-04-26T11:51:09.502Z,0.65
2023-04-26T11:53:45.691Z,0.70
2023-04-26T11:56:27.123Z,0.65
2023-04-26T11:58:55.651Z,0.70
2023-04-26T12:01:25.990Z,0.60
2023-04-26T12:03:57.610Z,0.85
2023-04-26T12:06:33.031Z,0.98
2023-04-26T12:09:05.565Z,0.60
2023-04-26T12:11:34.652Z,0.75
2023-04-26T12:14:03.519Z,0.70
2023-04-26T12:16:32.041Z,0.50
2023-04-26T12:19:06.028Z,0.70
2023-04-26T12:21:42.640Z,0.88
2023-04-26T12:24:25.417Z,0.55
2023-04-26T12:26:53.854Z,0.50
2023-04-26T12:29:23.637Z,0.60
2023-04-26T12:31:52.027Z,0.60
2023-04-26T12:34:21.861Z,0.50
2023-04-26T12:36:50.198Z,0.57
2023-04-26T12:39:18.557Z,0.93
2023-04-26T12:41:47.362Z,0.73
2023-04-26T12:44:15.747Z,0.60
2023-04-26T12:46:44.421Z,0.40
2023-04-26T12:49:12.842Z,0.30
2023-04-26T12:51:42.550Z,0.70
2023-04-26T12:54:11.053Z,0.75
2023-04-26T12:56:43.865Z,0.40
2023-04-26T12:59:12.619Z,0.40
2023-04-26T13:01:41.141Z,0.52
2023-04-26T13:04:10.236Z,0.60
2023-04-26T13:06:38.732Z,0.30
2023-04-26T13:09:09.077Z,0.30
2023-04-26T13:11:37.492Z,0.20
2023-04-26T13:14:06.954Z,0.40
2023-04-26T13:16:35.425Z,0.50
2023-04-26T13:19:04.012Z,0.40
2023-04-26T13:21:32.751Z,0.60
2023-04-26T13:24:01.347Z,0.33
2023-04-26T13:26:31.236Z,0.55
2023-04-26T13:28:59.892Z,0.30
2023-04-26T13:31:28.673Z,0.67
2023-04-26T13:33:59.172Z,0.60
2023-04-26T13:36:30.699Z,0.40
2023-04-26T13:39:01.129Z,0.50
2023-04-26T13:41:41.092Z,0.30
2023-04-26T13:44:09.474Z,0.30
2023-04-26T13:46:38.097Z,0.80
2023-04-26T13:49:07.068Z,0.40
2023-04-26T13:51:35.566Z,0.83
2023-04-26T13:54:05.024Z,0.50
2023-04-26T13:56:34.904Z,0.40
2023-04-26T13:59:05.362Z,0.30
2023-04-26T14:01:56.862Z,0.40
2023-04-26T14:04:27.202Z,0.43
2023-04-26T14:06:55.956Z,0.50
2023-04-26T14:09:24.435Z,0.70
2023-04-26T14:12:07.055Z,0.30
2023-04-26T14:14:39.745Z,0.30
2023-04-26T14:17:08.085Z,0.30
2023-04-26T14:19:36.357Z,0.40
2023-04-26T14:22:04.860Z,0.40
2023-04-26T14:24:54.861Z,0.40
2023-04-26T14:27:28.487Z,0.60
2023-04-26T14:29:56.981Z,1.10
2023-04-26T14:32:28.408Z,0.57
2023-04-26T14:34:59.760Z,0.77
2023-04-26T14:37:28.097Z,1.63
2023-04-26T14:39:56.638Z,1.03
2023-04-26T14:42:29.429Z,0.60
2023-04-26T14:45:03.697Z,0.40
2023-04-26T14:47:37.711Z,0.50
2023-04-26T14:50:10.157Z,1.13
2023-04-26T14:52:40.820Z,0.40
2023-04-26T14:55:09.822Z,0.63
2023-04-26T14:57:41.990Z,0.50
2023-04-26T15:00:15.334Z,0.30
2023-04-26T15:02:44.136Z,0.50
2023-04-26T15:05:15.396Z,0.60
2023-04-26T15:07:46.669Z,0.47
2023-04-26T15:10:16.243Z,0.40
2023-04-26T15:12:46.255Z,0.67
2023-04-26T15:15:23.369Z,0.60
2023-04-26T15:17:51.821Z,0.40
2023-04-26T15:20:20.724Z,0.47
2023-04-26T15:22:49.866Z,0.80
2023-04-26T15:25:21.178Z,0.40
2023-04-26T15:27:52.725Z,0.60
2023-04-26T15:30:24.590Z,0.67
2023-04-26T15:32:56.862Z,0.40
2023-04-26T15:35:28.149Z,0.30
2023-04-26T15:37:56.545Z,0.37
2023-04-26T15:40:28.621Z,0.30
2023-04-26T15:42:58.376Z,0.30
2023-04-26T15:45:26.878Z,0.37
2023-04-26T15:47:57.322Z,0.40
2023-04-26T15:50:26.086Z,0.47
2023-04-26T15:52:55.345Z,0.43
2023-04-26T15:55:23.744Z,0.40
2023-04-26T15:57:52.151Z,0.30
2023-04-26T16:00:26.506Z,0.53
2023-04-26T16:02:54.986Z,0.53
2023-04-26T16:05:25.581Z,0.80
2023-04-26T16:07:53.884Z,0.30
2023-04-26T16:10:26.105Z,0.33
2023-04-26T16:12:54.412Z,0.33
2023-04-26T16:15:37.952Z,0.30
2023-04-26T16:18:06.409Z,0.60
2023-04-26T16:20:35.052Z,0.40
2023-04-26T16:23:03.566Z,0.83
2023-04-26T16:25:31.924Z,0.40
2023-04-26T16:28:00.219Z,1.00
2023-04-26T16:30:33.140Z,0.80
2023-04-26T16:33:07.609Z,0.53
2023-04-26T16:35:52.583Z,0.50
2023-04-26T16:38:23.055Z,0.77
2023-04-26T16:40:59.799Z,0.70
2023-04-26T16:43:30.360Z,0.50
2023-04-26T16:46:01.561Z,0.50
2023-04-26T16:48:32.907Z,0.50
2023-04-26T16:51:01.950Z,0.97
2023-04-26T16:53:33.341Z,0.50
2023-04-26T16:56:01.767Z,0.53
2023-04-26T16:58:30.087Z,0.63
2023-04-26T17:00:59.796Z,0.40
2023-04-26T17:03:34.112Z,0.47
2023-04-26T17:06:13.039Z,0.60
2023-04-26T17:08:43.597Z,0.40
2023-04-26T17:11:19.794Z,0.40
2023-04-26T17:13:50.796Z,0.37
2023-04-26T17:16:20.681Z,0.70
2023-04-26T17:18:49.749Z,0.80
2023-04-26T17:21:18.152Z,0.40
2023-04-26T17:23:46.573Z,0.67
2023-04-26T17:26:26.615Z,0.60
2023-04-26T17:28:56.340Z,0.40
2023-04-26T17:31:26.527Z,0.67
2023-04-26T17:33:54.950Z,0.50
2023-04-26T17:36:23.425Z,0.50
2023-04-26T17:38:51.750Z,0.70
2023-04-26T17:41:21.957Z,0.50
2023-04-26T17:44:07.936Z,0.90
2023-04-26T17:46:41.919Z,0.60
2023-04-26T17:49:10.179Z,0.40
2023-04-26T17:51:38.680Z,0.40
2023-04-26T17:54:28.901Z,0.40
2023-04-26T17:56:58.364Z,0.60
2023-04-26T17:59:32.568Z,0.60
2023-04-26T18:02:09.787Z,0.60
2023-04-26T18:04:45.086Z,0.50
2023-04-26T18:07:13.781Z,0.57
2023-04-26T18:09:42.798Z,0.40
2023-04-26T18:12:11.157Z,0.70
2023-04-26T18:14:45.771Z,0.50
2023-04-26T18:17:16.296Z,0.43
2023-04-26T18:19:44.598Z,0.43
2023-04-26T18:22:13.025Z,0.40
2023-04-26T18:24:41.512Z,0.60
2023-04-26T18:27:14.479Z,0.50
2023-04-26T18:29:42.985Z,0.50
2023-04-26T18:32:13.959Z,0.43
2023-04-26T18:34:44.121Z,0.60
2023-04-26T18:37:12.487Z,1.13
2023-04-26T18:39:41.027Z,0.50
2023-04-26T18:42:09.536Z,0.70
2023-04-26T18:44:44.414Z,1.00
2023-04-26T18:47:12.748Z,0.87
2023-04-26T18:49:43.616Z,0.50
2023-04-26T18:52:21.183Z,0.40
2023-04-26T18:54:51.350Z,1.10
2023-04-26T18:57:22.687Z,0.53
2023-04-26T18:59:50.960Z,0.40
2023-04-26T19:02:21.601Z,0.53
2023-04-26T19:04:51.320Z,0.50
2023-04-26T19:07:21.093Z,0.63
2023-04-26T19:09:54.477Z,0.50
2023-04-26T19:12:24.250Z,0.90
2023-04-26T19:14:54.333Z,0.57
2023-04-26T19:17:22.815Z,0.53
2023-04-26T19:19:55.514Z,0.50
2023-04-26T19:22:25.332Z,0.73
2023-04-26T19:24:53.880Z,0.70
2023-04-26T19:27:22.177Z,0.70
2023-04-26T19:29:50.665Z,0.50
2023-04-26T19:32:19.962Z,0.50
2023-04-26T19:34:50.241Z,0.63
2023-04-26T19:37:22.310Z,0.50
2023-04-26T19:39:52.113Z,0.50
2023-04-26T19:42:29.267Z,0.53
2023-04-26T19:44:57.737Z,0.87
2023-04-26T19:47:31.482Z,0.40
2023-04-26T19:50:10.201Z,0.40
2023-04-26T19:52:41.351Z,0.60
2023-04-26T19:55:18.804Z,0.50
2023-04-26T19:57:50.413Z,0.33
2023-04-26T20:00:34.377Z,0.33
2023-04-26T20:03:04.859Z,0.30
2023-04-26T20:05:40.377Z,0.67
2023-04-26T20:08:08.658Z,0.30
2023-04-26T20:10:38.602Z,0.40
2023-04-26T20:13:07.388Z,0.30
2023-04-26T20:15:42.269Z,0.40
2023-04-26T20:20:59.387Z,0.33
2023-04-26T20:23:27.736Z,0.40
2023-04-26T20:25:57.643Z,0.43
2023-04-26T20:28:27.445Z,0.73
2023-04-26T20:30:56.913Z,0.40
2023-04-26T20:33:30.634Z,0.40
2023-04-26T20:36:04.341Z,0.43
2023-04-26T20:38:32.886Z,0.50
2023-04-26T20:41:05.857Z,0.60
2023-04-26T20:43:34.577Z,0.50
2023-04-26T20:46:08.189Z,0.67
2023-04-26T20:48:36.610Z,0.33
2023-04-26T20:51:05.033Z,0.30
2023-04-26T20:53:33.484Z,0.57
2023-04-26T20:56:03.636Z,0.73
2023-04-26T20:58:32.010Z,0.47
2023-04-26T21:01:07.313Z,0.57
2023-04-26T21:03:38.475Z,0.50
2023-04-26T21:06:07.287Z,0.63
2023-04-26T21:08:36.791Z,0.53
2023-04-26T21:11:06.889Z,0.63
2023-04-26T21:13:38.105Z,1.07
2023-04-26T21:16:07.919Z,0.70
2023-04-26T21:18:43.018Z,0.40
2023-04-26T21:21:11.766Z,0.50
2023-04-26T21:23:40.072Z,0.40
2023-04-26T21:26:10.416Z,0.40
2023-04-26T21:28:38.705Z,0.47
2023-04-26T21:31:08.781Z,0.70
2023-04-26T21:33:37.117Z,0.50
2023-04-26T21:36:06.438Z,0.30
2023-04-26T21:38:35.046Z,1.00
2023-04-26T21:41:03.379Z,0.60
2023-04-26T21:43:33.111Z,0.30
2023-04-26T21:46:01.464Z,0.50
2023-04-26T21:48:30.600Z,0.37
2023-04-26T21:50:58.961Z,0.77
2023-04-26T21:53:27.314Z,0.50
2023-04-26T21:56:02.401Z,0.50
2023-04-26T21:58:32.092Z,0.60
2023-04-26T22:01:09.358Z,0.60
2023-04-26T22:03:38.574Z,0.43
2023-04-26T22:06:08.294Z,0.93
2023-04-26T22:08:37.037Z,0.60
2023-04-26T22:11:05.343Z,0.50
2023-04-26T22:13:38.292Z,0.50
2023-04-26T22:16:07.319Z,0.50
2023-04-26T22:18:35.900Z,0.73
2023-04-26T22:21:04.273Z,0.80
2023-04-26T22:23:32.666Z,0.60
2023-04-26T22:26:00.999Z,0.70
2023-04-26T22:28:30.626Z,0.83
2023-04-26T22:31:00.383Z,0.70
2023-04-26T22:33:28.662Z,0.60
2023-04-26T22:35:58.099Z,1.03
2023-04-26T22:38:26.531Z,0.50
2023-04-26T22:40:59.787Z,0.50
2023-04-26T22:43:28.026Z,0.70
2023-04-26T22:45:56.446Z,0.80
2023-04-26T22:48:27.414Z,0.50
2023-04-26T22:50:56.047Z,0.70
2023-04-26T22:53:24.349Z,1.20
2023-04-26T22:55:53.028Z,1.10
2023-04-26T22:58:21.320Z,0.77
2023-04-26T23:00:49.782Z,1.07
2023-04-26T23:03:18.183Z,0.50
2023-04-26T23:05:48.085Z,0.70
2023-04-26T23:08:16.762Z,1.17
2023-04-26T23:10:45.094Z,0.60
2023-04-26T23:13:14.594Z,0.60
2023-04-26T23:15:47.620Z,0.50
2023-04-26T23:18:16.321Z,0.53
2023-04-26T23:20:44.615Z,0.63
2023-04-26T23:23:14.347Z,0.80
2023-04-26T23:25:42.640Z,0.60
2023-04-26T23:28:11.096Z,0.43
2023-04-26T23:30:39.527Z,0.80
2023-04-26T23:33:07.983Z,0.70
2023-04-26T23:35:40.962Z,0.87
2023-04-26T23:38:09.360Z,1.03
2023-04-26T23:40:39.082Z,1.23
2023-04-26T23:43:07.409Z,0.47
2023-04-26T23:45:35.805Z,0.70
2023-04-26T23:48:04.091Z,0.67
2023-04-26T23:50:32.405Z,0.50
2023-04-26T23:53:02.836Z,0.63
2023-04-26T23:55:31.623Z,0.70
2023-04-26T23:58:01.661Z,0.80
